Allemand, Louisiana
Current Conditions -  °F | °C
As of 10:15 PM on Monday 22 Dec 2014 (Local Time) from KHUM Reporting Station
Haze Haze  
Wind Chill: 69°   Ceiling: 600
Heat Index: 69°   Visibility: 5mi
Dew Point: 68°   Wind: 6mph
Humidity: 97%   Direction: 190°S
Pressure: 29.73"   Gusts: NA
Location:  29.5867°N, 90.8252°W
Report Text: KHUM 230415Z AUTO 19005KT 5SM BR BKN006 OVC014 21/20 A2973 RMK AO2 T02050200
Loading
Personal Weather Stations






























Interactive Weather Map New forecast layout! Learn more

10-Day Weather Forecast

Advertisements
Track Severe Weather on mobile